sensor_id;sensor_type;location;lat;lon;timestamp;P1;durP1;ratioP1;P2;durP2;ratioP2
17955;SDS011;27666;51.498;11.966;2023-03-13T00:02:22;10.10;;;4.37;;
17955;SDS011;27666;51.498;11.966;2023-03-13T00:05:10;10.87;;;4.30;;
17955;SDS011;27666;51.498;11.966;2023-03-13T00:07:57;7.97;;;4.23;;
17955;SDS011;27666;51.498;11.966;2023-03-13T00:10:44;10.90;;;3.80;;
17955;SDS011;27666;51.498;11.966;2023-03-13T00:13:30;10.17;;;4.83;;
17955;SDS011;27666;51.498;11.966;2023-03-13T00:16:17;12.70;;;4.90;;
17955;SDS011;27666;51.498;11.966;2023-03-13T00:19:05;13.27;;;3.70;;
17955;SDS011;27666;51.498;11.966;2023-03-13T00:21:54;11.20;;;4.33;;
17955;SDS011;27666;51.498;11.966;2023-03-13T00:24:42;9.67;;;4.30;;
17955;SDS011;27666;51.498;11.966;2023-03-13T00:27:31;9.40;;;4.10;;
17955;SDS011;27666;51.498;11.966;2023-03-13T00:30:18;14.17;;;4.37;;
17955;SDS011;27666;51.498;11.966;2023-03-13T00:33:05;11.23;;;4.20;;
17955;SDS011;27666;51.498;11.966;2023-03-13T00:35:51;14.10;;;4.60;;
17955;SDS011;27666;51.498;11.966;2023-03-13T00:38:46;11.20;;;4.23;;
17955;SDS011;27666;51.498;11.966;2023-03-13T00:41:33;12.40;;;4.50;;
17955;SDS011;27666;51.498;11.966;2023-03-13T00:44:21;14.83;;;4.60;;
17955;SDS011;27666;51.498;11.966;2023-03-13T00:47:08;9.60;;;4.10;;
17955;SDS011;27666;51.498;11.966;2023-03-13T00:49:55;12.47;;;4.03;;
17955;SDS011;27666;51.498;11.966;2023-03-13T00:52:41;14.17;;;4.23;;
17955;SDS011;27666;51.498;11.966;2023-03-13T00:55:29;10.67;;;4.20;;
17955;SDS011;27666;51.498;11.966;2023-03-13T00:58:16;13.67;;;4.20;;
17955;SDS011;27666;51.498;11.966;2023-03-13T01:01:06;20.43;;;4.87;;
17955;SDS011;27666;51.498;11.966;2023-03-13T01:03:54;16.83;;;4.17;;
17955;SDS011;27666;51.498;11.966;2023-03-13T01:06:41;15.47;;;4.50;;
17955;SDS011;27666;51.498;11.966;2023-03-13T01:09:28;16.67;;;4.23;;
17955;SDS011;27666;51.498;11.966;2023-03-13T01:12:16;14.67;;;4.40;;
17955;SDS011;27666;51.498;11.966;2023-03-13T01:15:02;22.33;;;4.40;;
17955;SDS011;27666;51.498;11.966;2023-03-13T01:17:50;14.17;;;4.40;;
17955;SDS011;27666;51.498;11.966;2023-03-13T01:20:37;16.53;;;4.10;;
17955;SDS011;27666;51.498;11.966;2023-03-13T01:23:24;17.17;;;4.53;;
17955;SDS011;27666;51.498;11.966;2023-03-13T01:26:11;17.00;;;4.77;;
17955;SDS011;27666;51.498;11.966;2023-03-13T01:28:59;12.47;;;4.30;;
17955;SDS011;27666;51.498;11.966;2023-03-13T01:31:46;12.93;;;4.10;;
17955;SDS011;27666;51.498;11.966;2023-03-13T01:34:32;17.13;;;3.90;;
17955;SDS011;27666;51.498;11.966;2023-03-13T01:37:19;9.80;;;4.23;;
17955;SDS011;27666;51.498;11.966;2023-03-13T01:40:06;7.00;;;3.73;;
17955;SDS011;27666;51.498;11.966;2023-03-13T01:42:54;12.23;;;3.90;;
17955;SDS011;27666;51.498;11.966;2023-03-13T01:45:58;12.17;;;4.37;;
17955;SDS011;27666;51.498;11.966;2023-03-13T01:48:48;9.00;;;3.83;;
17955;SDS011;27666;51.498;11.966;2023-03-13T01:51:39;13.13;;;3.87;;
17955;SDS011;27666;51.498;11.966;2023-03-13T01:54:29;12.87;;;3.90;;
17955;SDS011;27666;51.498;11.966;2023-03-13T01:57:23;13.83;;;4.30;;
17955;SDS011;27666;51.498;11.966;2023-03-13T02:00:12;9.77;;;3.77;;
17955;SDS011;27666;51.498;11.966;2023-03-13T02:03:03;14.87;;;4.63;;
17955;SDS011;27666;51.498;11.966;2023-03-13T02:05:54;11.67;;;4.07;;
17955;SDS011;27666;51.498;11.966;2023-03-13T02:08:44;16.03;;;5.07;;
17955;SDS011;27666;51.498;11.966;2023-03-13T02:11:35;20.33;;;5.37;;
17955;SDS011;27666;51.498;11.966;2023-03-13T02:14:29;9.67;;;3.83;;
17955;SDS011;27666;51.498;11.966;2023-03-13T02:17:19;10.00;;;3.87;;
17955;SDS011;27666;51.498;11.966;2023-03-13T02:20:08;8.77;;;3.97;;
17955;SDS011;27666;51.498;11.966;2023-03-13T02:22:57;15.17;;;3.93;;
17955;SDS011;27666;51.498;11.966;2023-03-13T02:25:49;8.53;;;3.27;;
17955;SDS011;27666;51.498;11.966;2023-03-13T02:28:37;18.87;;;4.60;;
17955;SDS011;27666;51.498;11.966;2023-03-13T02:31:24;9.00;;;3.80;;
17955;SDS011;27666;51.498;11.966;2023-03-13T02:34:11;16.13;;;3.97;;
17955;SDS011;27666;51.498;11.966;2023-03-13T02:37:00;11.97;;;4.00;;
17955;SDS011;27666;51.498;11.966;2023-03-13T02:39:50;14.10;;;3.83;;
17955;SDS011;27666;51.498;11.966;2023-03-13T02:42:40;12.57;;;4.13;;
17955;SDS011;27666;51.498;11.966;2023-03-13T02:45:28;12.23;;;4.07;;
17955;SDS011;27666;51.498;11.966;2023-03-13T02:48:15;15.03;;;3.70;;
17955;SDS011;27666;51.498;11.966;2023-03-13T02:51:04;11.83;;;4.33;;
17955;SDS011;27666;51.498;11.966;2023-03-13T02:53:56;13.53;;;3.80;;
17955;SDS011;27666;51.498;11.966;2023-03-13T02:56:46;9.90;;;4.00;;
17955;SDS011;27666;51.498;11.966;2023-03-13T02:59:37;11.03;;;3.50;;
17955;SDS011;27666;51.498;11.966;2023-03-13T03:02:24;12.30;;;3.60;;
17955;SDS011;27666;51.498;11.966;2023-03-13T03:05:10;18.83;;;4.47;;
17955;SDS011;27666;51.498;11.966;2023-03-13T03:07:58;10.20;;;3.93;;
17955;SDS011;27666;51.498;11.966;2023-03-13T03:10:44;8.93;;;4.20;;
17955;SDS011;27666;51.498;11.966;2023-03-13T03:13:30;11.33;;;3.87;;
17955;SDS011;27666;51.498;11.966;2023-03-13T03:16:20;12.30;;;4.73;;
17955;SDS011;27666;51.498;11.966;2023-03-13T03:19:07;9.07;;;3.53;;
17955;SDS011;27666;51.498;11.966;2023-03-13T03:21:56;11.73;;;3.80;;
17955;SDS011;27666;51.498;11.966;2023-03-13T03:24:42;12.20;;;4.23;;
17955;SDS011;27666;51.498;11.966;2023-03-13T03:27:29;12.13;;;3.30;;
17955;SDS011;27666;51.498;11.966;2023-03-13T03:30:16;17.03;;;4.20;;
17955;SDS011;27666;51.498;11.966;2023-03-13T03:33:04;16.53;;;4.30;;
17955;SDS011;27666;51.498;11.966;2023-03-13T03:35:50;11.50;;;3.83;;
17955;SDS011;27666;51.498;11.966;2023-03-13T03:38:37;8.53;;;3.43;;
17955;SDS011;27666;51.498;11.966;2023-03-13T03:41:24;16.83;;;4.30;;
17955;SDS011;27666;51.498;11.966;2023-03-13T03:44:11;13.50;;;3.73;;
17955;SDS011;27666;51.498;11.966;2023-03-13T03:46:58;17.40;;;4.50;;
17955;SDS011;27666;51.498;11.966;2023-03-13T03:49:46;13.77;;;3.57;;
17955;SDS011;27666;51.498;11.966;2023-03-13T03:52:33;8.70;;;3.67;;
17955;SDS011;27666;51.498;11.966;2023-03-13T03:55:19;14.00;;;4.23;;
17955;SDS011;27666;51.498;11.966;2023-03-13T03:58:06;15.47;;;4.60;;
17955;SDS011;27666;51.498;11.966;2023-03-13T04:00:54;14.67;;;4.20;;
17955;SDS011;27666;51.498;11.966;2023-03-13T04:03:42;8.23;;;4.00;;
17955;SDS011;27666;51.498;11.966;2023-03-13T04:06:30;12.57;;;3.87;;
17955;SDS011;27666;51.498;11.966;2023-03-13T04:09:16;10.47;;;3.67;;
17955;SDS011;27666;51.498;11.966;2023-03-13T04:12:04;13.43;;;4.13;;
17955;SDS011;27666;51.498;11.966;2023-03-13T04:14:51;14.03;;;3.83;;
17955;SDS011;27666;51.498;11.966;2023-03-13T04:17:37;13.77;;;4.07;;
17955;SDS011;27666;51.498;11.966;2023-03-13T04:20:24;11.67;;;3.60;;
17955;SDS011;27666;51.498;11.966;2023-03-13T04:23:13;11.97;;;4.10;;
17955;SDS011;27666;51.498;11.966;2023-03-13T04:26:01;17.50;;;3.93;;
17955;SDS011;27666;51.498;11.966;2023-03-13T04:28:48;14.13;;;4.03;;
17955;SDS011;27666;51.498;11.966;2023-03-13T04:31:34;14.57;;;4.33;;
17955;SDS011;27666;51.498;11.966;2023-03-13T04:34:21;11.60;;;3.70;;
17955;SDS011;27666;51.498;11.966;2023-03-13T04:37:10;14.97;;;4.47;;
17955;SDS011;27666;51.498;11.966;2023-03-13T04:39:57;8.90;;;3.57;;
17955;SDS011;27666;51.498;11.966;2023-03-13T04:42:45;10.83;;;4.70;;
17955;SDS011;27666;51.498;11.966;2023-03-13T04:45:31;13.10;;;3.93;;
17955;SDS011;27666;51.498;11.966;2023-03-13T04:48:18;12.47;;;3.87;;
17955;SDS011;27666;51.498;11.966;2023-03-13T04:51:04;14.70;;;4.20;;
17955;SDS011;27666;51.498;11.966;2023-03-13T04:53:51;17.97;;;4.40;;
17955;SDS011;27666;51.498;11.966;2023-03-13T04:56:39;12.03;;;3.90;;
17955;SDS011;27666;51.498;11.966;2023-03-13T04:59:28;14.63;;;3.60;;
17955;SDS011;27666;51.498;11.966;2023-03-13T05:02:15;10.00;;;3.80;;
17955;SDS011;27666;51.498;11.966;2023-03-13T05:05:03;14.93;;;4.57;;
17955;SDS011;27666;51.498;11.966;2023-03-13T05:07:50;18.87;;;4.40;;
17955;SDS011;27666;51.498;11.966;2023-03-13T05:10:36;14.93;;;4.07;;
17955;SDS011;27666;51.498;11.966;2023-03-13T05:13:24;13.27;;;4.07;;
17955;SDS011;27666;51.498;11.966;2023-03-13T05:16:11;11.77;;;3.90;;
17955;SDS011;27666;51.498;11.966;2023-03-13T05:18:58;14.53;;;3.87;;
17955;SDS011;27666;51.498;11.966;2023-03-13T05:21:44;10.57;;;4.47;;
17955;SDS011;27666;51.498;11.966;2023-03-13T05:24:30;14.33;;;4.03;;
17955;SDS011;27666;51.498;11.966;2023-03-13T05:27:17;13.83;;;4.17;;
17955;SDS011;27666;51.498;11.966;2023-03-13T05:30:05;13.23;;;4.17;;
17955;SDS011;27666;51.498;11.966;2023-03-13T05:32:53;13.43;;;4.27;;
17955;SDS011;27666;51.498;11.966;2023-03-13T05:35:39;15.50;;;4.17;;
17955;SDS011;27666;51.498;11.966;2023-03-13T05:38:27;11.30;;;4.60;;
17955;SDS011;27666;51.498;11.966;2023-03-13T05:41:14;13.70;;;4.20;;
17955;SDS011;27666;51.498;11.966;2023-03-13T05:44:00;11.73;;;4.40;;
17955;SDS011;27666;51.498;11.966;2023-03-13T05:46:48;15.27;;;5.07;;
17955;SDS011;27666;51.498;11.966;2023-03-13T05:49:35;13.70;;;4.30;;
17955;SDS011;27666;51.498;11.966;2023-03-13T05:52:22;10.87;;;3.90;;
17955;SDS011;27666;51.498;11.966;2023-03-13T05:55:09;14.67;;;4.83;;
17955;SDS011;27666;51.498;11.966;2023-03-13T05:57:56;16.93;;;5.27;;
17955;SDS011;27666;51.498;11.966;2023-03-13T06:00:42;14.03;;;4.73;;
17955;SDS011;27666;51.498;11.966;2023-03-13T06:03:30;15.03;;;4.00;;
17955;SDS011;27666;51.498;11.966;2023-03-13T06:06:17;12.90;;;4.37;;
17955;SDS011;27666;51.498;11.966;2023-03-13T06:09:03;15.07;;;4.57;;
17955;SDS011;27666;51.498;11.966;2023-03-13T06:11:50;8.73;;;4.10;;
17955;SDS011;27666;51.498;11.966;2023-03-13T06:14:36;13.10;;;5.00;;
17955;SDS011;27666;51.498;11.966;2023-03-13T06:17:23;9.40;;;4.17;;
17955;SDS011;27666;51.498;11.966;2023-03-13T06:20:11;14.33;;;4.80;;
17955;SDS011;27666;51.498;11.966;2023-03-13T06:22:58;8.87;;;4.10;;
17955;SDS011;27666;51.498;11.966;2023-03-13T06:25:45;14.47;;;4.00;;
17955;SDS011;27666;51.498;11.966;2023-03-13T06:28:33;13.40;;;4.23;;
17955;SDS011;27666;51.498;11.966;2023-03-13T06:31:19;14.10;;;4.53;;
17955;SDS011;27666;51.498;11.966;2023-03-13T06:34:06;13.50;;;5.23;;
17955;SDS011;27666;51.498;11.966;2023-03-13T06:36:54;11.70;;;4.50;;
17955;SDS011;27666;51.498;11.966;2023-03-13T06:39:42;16.23;;;4.27;;
17955;SDS011;27666;51.498;11.966;2023-03-13T06:42:29;10.23;;;4.33;;
17955;SDS011;27666;51.498;11.966;2023-03-13T06:45:15;20.20;;;4.93;;
17955;SDS011;27666;51.498;11.966;2023-03-13T06:48:02;10.70;;;4.90;;
17955;SDS011;27666;51.498;11.966;2023-03-13T06:50:49;16.27;;;3.73;;
17955;SDS011;27666;51.498;11.966;2023-03-13T06:53:37;9.13;;;3.90;;
17955;SDS011;27666;51.498;11.966;2023-03-13T06:56:23;10.57;;;4.03;;
17955;SDS011;27666;51.498;11.966;2023-03-13T06:59:13;16.23;;;3.87;;
17955;SDS011;27666;51.498;11.966;2023-03-13T07:01:59;9.63;;;3.70;;
17955;SDS011;27666;51.498;11.966;2023-03-13T07:04:45;13.40;;;5.20;;
17955;SDS011;27666;51.498;11.966;2023-03-13T07:07:32;9.70;;;4.20;;
17955;SDS011;27666;51.498;11.966;2023-03-13T07:10:21;11.50;;;4.47;;
17955;SDS011;27666;51.498;11.966;2023-03-13T07:13:09;9.07;;;4.10;;
17955;SDS011;27666;51.498;11.966;2023-03-13T07:15:58;7.17;;;3.73;;
17955;SDS011;27666;51.498;11.966;2023-03-13T07:18:45;14.43;;;4.53;;
17955;SDS011;27666;51.498;11.966;2023-03-13T07:21:32;9.60;;;3.80;;
17955;SDS011;27666;51.498;11.966;2023-03-13T07:24:18;16.53;;;4.00;;
17955;SDS011;27666;51.498;11.966;2023-03-13T07:27:09;6.90;;;3.17;;
17955;SDS011;27666;51.498;11.966;2023-03-13T07:29:55;9.50;;;3.90;;
17955;SDS011;27666;51.498;11.966;2023-03-13T07:32:42;7.67;;;3.93;;
17955;SDS011;27666;51.498;11.966;2023-03-13T07:35:29;6.27;;;3.60;;
17955;SDS011;27666;51.498;11.966;2023-03-13T07:38:15;9.63;;;4.10;;
17955;SDS011;27666;51.498;11.966;2023-03-13T07:41:02;6.37;;;3.50;;
17955;SDS011;27666;51.498;11.966;2023-03-13T07:43:51;8.40;;;3.47;;
17955;SDS011;27666;51.498;11.966;2023-03-13T07:46:38;6.53;;;3.00;;
17955;SDS011;27666;51.498;11.966;2023-03-13T07:49:24;4.63;;;2.47;;
17955;SDS011;27666;51.498;11.966;2023-03-13T07:52:11;7.70;;;3.67;;
17955;SDS011;27666;51.498;11.966;2023-03-13T07:54:58;7.03;;;3.17;;
17955;SDS011;27666;51.498;11.966;2023-03-13T07:57:44;8.77;;;4.17;;
17955;SDS011;27666;51.498;11.966;2023-03-13T08:00:32;6.60;;;3.23;;
17955;SDS011;27666;51.498;11.966;2023-03-13T08:03:20;5.20;;;2.67;;
17955;SDS011;27666;51.498;11.966;2023-03-13T08:06:08;5.93;;;2.93;;
17955;SDS011;27666;51.498;11.966;2023-03-13T08:08:56;6.77;;;2.53;;
17955;SDS011;27666;51.498;11.966;2023-03-13T08:11:43;3.90;;;2.30;;
17955;SDS011;27666;51.498;11.966;2023-03-13T08:14:33;4.37;;;2.57;;
17955;SDS011;27666;51.498;11.966;2023-03-13T08:17:21;5.80;;;2.80;;
17955;SDS011;27666;51.498;11.966;2023-03-13T08:20:08;6.87;;;2.50;;
17955;SDS011;27666;51.498;11.966;2023-03-13T08:22:55;2.70;;;2.07;;
17955;SDS011;27666;51.498;11.966;2023-03-13T08:25:42;5.73;;;2.67;;
17955;SDS011;27666;51.498;11.966;2023-03-13T08:28:29;6.70;;;3.07;;
17955;SDS011;27666;51.498;11.966;2023-03-13T08:31:17;9.03;;;2.27;;
17955;SDS011;27666;51.498;11.966;2023-03-13T08:34:07;9.07;;;2.57;;
17955;SDS011;27666;51.498;11.966;2023-03-13T08:36:53;4.20;;;2.07;;
17955;SDS011;27666;51.498;11.966;2023-03-13T08:39:41;4.83;;;2.23;;
17955;SDS011;27666;51.498;11.966;2023-03-13T08:42:29;6.03;;;2.67;;
17955;SDS011;27666;51.498;11.966;2023-03-13T08:45:15;5.87;;;2.57;;
17955;SDS011;27666;51.498;11.966;2023-03-13T08:48:01;5.40;;;2.30;;
17955;SDS011;27666;51.498;11.966;2023-03-13T08:50:58;4.03;;;2.60;;
17955;SDS011;27666;51.498;11.966;2023-03-13T08:53:47;3.07;;;1.97;;
17955;SDS011;27666;51.498;11.966;2023-03-13T08:56:33;4.87;;;2.10;;
17955;SDS011;27666;51.498;11.966;2023-03-13T08:59:20;18.00;;;9.13;;
17955;SDS011;27666;51.498;11.966;2023-03-13T09:02:07;7.30;;;3.33;;
17955;SDS011;27666;51.498;11.966;2023-03-13T09:04:54;4.97;;;2.20;;
17955;SDS011;27666;51.498;11.966;2023-03-13T09:07:42;3.70;;;2.33;;
17955;SDS011;27666;51.498;11.966;2023-03-13T09:10:28;1.93;;;1.70;;
17955;SDS011;27666;51.498;11.966;2023-03-13T09:13:15;2.87;;;2.03;;
17955;SDS011;27666;51.498;11.966;2023-03-13T09:16:02;3.50;;;1.90;;
17955;SDS011;27666;51.498;11.966;2023-03-13T09:18:50;2.20;;;1.87;;
17955;SDS011;27666;51.498;11.966;2023-03-13T09:21:37;2.67;;;1.77;;
17955;SDS011;27666;51.498;11.966;2023-03-13T09:24:25;5.20;;;2.30;;
17955;SDS011;27666;51.498;11.966;2023-03-13T09:27:15;4.13;;;2.20;;
17955;SDS011;27666;51.498;11.966;2023-03-13T09:30:01;5.07;;;2.90;;
17955;SDS011;27666;51.498;11.966;2023-03-13T09:32:48;2.53;;;2.03;;
17955;SDS011;27666;51.498;11.966;2023-03-13T09:35:36;2.53;;;1.97;;
17955;SDS011;27666;51.498;11.966;2023-03-13T09:38:24;7.20;;;3.87;;
17955;SDS011;27666;51.498;11.966;2023-03-13T09:41:18;6.23;;;2.50;;
17955;SDS011;27666;51.498;11.966;2023-03-13T09:44:10;2.50;;;2.30;;
17955;SDS011;27666;51.498;11.966;2023-03-13T09:47:00;2.27;;;2.07;;
17955;SDS011;27666;51.498;11.966;2023-03-13T09:49:51;4.10;;;2.13;;
17955;SDS011;27666;51.498;11.966;2023-03-13T09:52:42;3.60;;;2.47;;
17955;SDS011;27666;51.498;11.966;2023-03-13T09:55:29;2.30;;;2.10;;
17955;SDS011;27666;51.498;11.966;2023-03-13T09:58:21;2.60;;;1.80;;
17955;SDS011;27666;51.498;11.966;2023-03-13T10:01:10;2.93;;;2.37;;
17955;SDS011;27666;51.498;11.966;2023-03-13T10:04:00;2.80;;;1.80;;
17955;SDS011;27666;51.498;11.966;2023-03-13T10:06:51;2.27;;;2.00;;
17955;SDS011;27666;51.498;11.966;2023-03-13T10:09:39;2.40;;;1.70;;
17955;SDS011;27666;51.498;11.966;2023-03-13T10:12:27;2.63;;;2.00;;
17955;SDS011;27666;51.498;11.966;2023-03-13T10:15:26;5.33;;;3.63;;
17955;SDS011;27666;51.498;11.966;2023-03-13T10:18:21;1.50;;;1.40;;
17955;SDS011;27666;51.498;11.966;2023-03-13T10:21:13;2.80;;;1.83;;
17955;SDS011;27666;51.498;11.966;2023-03-13T10:24:04;5.90;;;2.10;;
17955;SDS011;27666;51.498;11.966;2023-03-13T10:26:58;2.17;;;1.70;;
17955;SDS011;27666;51.498;11.966;2023-03-13T10:29:45;3.30;;;1.80;;
17955;SDS011;27666;51.498;11.966;2023-03-13T10:32:34;2.83;;;1.57;;
17955;SDS011;27666;51.498;11.966;2023-03-13T10:35:24;5.87;;;2.40;;
17955;SDS011;27666;51.498;11.966;2023-03-13T10:38:18;2.53;;;1.63;;
17955;SDS011;27666;51.498;11.966;2023-03-13T10:41:17;5.20;;;2.30;;
17955;SDS011;27666;51.498;11.966;2023-03-13T10:44:14;5.37;;;3.27;;
17955;SDS011;27666;51.498;11.966;2023-03-13T10:47:02;3.70;;;2.20;;
17955;SDS011;27666;51.498;11.966;2023-03-13T10:49:51;3.03;;;2.37;;
17955;SDS011;27666;51.498;11.966;2023-03-13T10:52:42;1.73;;;1.60;;
17955;SDS011;27666;51.498;11.966;2023-03-13T10:55:31;1.93;;;1.83;;
17955;SDS011;27666;51.498;11.966;2023-03-13T10:58:19;2.23;;;1.90;;
17955;SDS011;27666;51.498;11.966;2023-03-13T11:01:16;2.80;;;2.03;;
17955;SDS011;27666;51.498;11.966;2023-03-13T11:04:17;2.80;;;1.80;;
17955;SDS011;27666;51.498;11.966;2023-03-13T11:07:13;3.78;;;2.47;;
17955;SDS011;27666;51.498;11.966;2023-03-13T11:10:01;3.17;;;1.95;;
17955;SDS011;27666;51.498;11.966;2023-03-13T11:13:00;11.98;;;4.32;;
17955;SDS011;27666;51.498;11.966;2023-03-13T11:15:49;5.85;;;2.40;;
17955;SDS011;27666;51.498;11.966;2023-03-13T11:18:44;3.63;;;2.22;;
17955;SDS011;27666;51.498;11.966;2023-03-13T11:21:49;10.82;;;2.53;;
17955;SDS011;27666;51.498;11.966;2023-03-13T11:24:48;3.38;;;1.90;;
17955;SDS011;27666;51.498;11.966;2023-03-13T11:27:43;3.63;;;2.17;;
17955;SDS011;27666;51.498;11.966;2023-03-13T11:30:41;4.45;;;2.30;;
17955;SDS011;27666;51.498;11.966;2023-03-13T11:33:35;3.72;;;2.20;;
17955;SDS011;27666;51.498;11.966;2023-03-13T11:36:28;6.32;;;2.13;;
17955;SDS011;27666;51.498;11.966;2023-03-13T11:39:29;4.75;;;2.13;;
17955;SDS011;27666;51.498;11.966;2023-03-13T11:42:34;3.72;;;2.00;;
17955;SDS011;27666;51.498;11.966;2023-03-13T11:45:35;6.53;;;2.42;;
17955;SDS011;27666;51.498;11.966;2023-03-13T11:48:36;4.40;;;2.20;;
17955;SDS011;27666;51.498;11.966;2023-03-13T11:51:34;2.40;;;2.13;;
17955;SDS011;27666;51.498;11.966;2023-03-13T11:54:40;4.15;;;2.10;;
17955;SDS011;27666;51.498;11.966;2023-03-13T11:57:51;6.00;;;3.33;;
17955;SDS011;27666;51.498;11.966;2023-03-13T12:00:45;3.20;;;2.20;;
17955;SDS011;27666;51.498;11.966;2023-03-13T12:03:37;2.22;;;1.90;;
17955;SDS011;27666;51.498;11.966;2023-03-13T12:06:30;5.07;;;2.03;;
17955;SDS011;27666;51.498;11.966;2023-03-13T12:09:20;3.95;;;1.98;;
17955;SDS011;27666;51.498;11.966;2023-03-13T12:12:14;2.50;;;2.30;;
17955;SDS011;27666;51.498;11.966;2023-03-13T12:15:13;4.50;;;2.08;;
17955;SDS011;27666;51.498;11.966;2023-03-13T12:18:04;2.95;;;2.50;;
17955;SDS011;27666;51.498;11.966;2023-03-13T12:20:57;4.47;;;2.50;;
17955;SDS011;27666;51.498;11.966;2023-03-13T12:23:51;3.38;;;2.10;;
17955;SDS011;27666;51.498;11.966;2023-03-13T12:26:43;5.13;;;2.53;;
17955;SDS011;27666;51.498;11.966;2023-03-13T12:29:37;2.33;;;2.13;;
17955;SDS011;27666;51.498;11.966;2023-03-13T12:32:31;2.38;;;1.85;;
17955;SDS011;27666;51.498;11.966;2023-03-13T12:35:25;2.50;;;2.30;;
17955;SDS011;27666;51.498;11.966;2023-03-13T12:38:14;2.40;;;2.20;;
17955;SDS011;27666;51.498;11.966;2023-03-13T12:41:09;3.65;;;2.45;;
17955;SDS011;27666;51.498;11.966;2023-03-13T12:44:02;6.35;;;2.53;;
17955;SDS011;27666;51.498;11.966;2023-03-13T12:46:56;4.65;;;2.33;;
17955;SDS011;27666;51.498;11.966;2023-03-13T12:50:00;7.93;;;2.95;;
17955;SDS011;27666;51.498;11.966;2023-03-13T12:53:21;5.13;;;2.85;;
17955;SDS011;27666;51.498;11.966;2023-03-13T12:56:29;10.73;;;2.78;;
17955;SDS011;27666;51.498;11.966;2023-03-13T12:59:25;3.20;;;2.90;;
17955;SDS011;27666;51.498;11.966;2023-03-13T13:02:17;5.03;;;3.00;;
17955;SDS011;27666;51.498;11.966;2023-03-13T13:05:15;5.05;;;2.90;;
17955;SDS011;27666;51.498;11.966;2023-03-13T13:08:20;5.38;;;3.42;;
17955;SDS011;27666;51.498;11.966;2023-03-13T13:17:55;3.70;;;2.60;;
17955;SDS011;27666;51.498;11.966;2023-03-13T13:20:48;6.13;;;2.60;;
17955;SDS011;27666;51.498;11.966;2023-03-13T13:27:27;4.72;;;3.10;;
17955;SDS011;27666;51.498;11.966;2023-03-13T13:30:31;9.13;;;3.47;;
17955;SDS011;27666;51.498;11.966;2023-03-13T13:33:32;8.93;;;2.88;;
17955;SDS011;27666;51.498;11.966;2023-03-13T13:36:32;8.23;;;2.80;;
17955;SDS011;27666;51.498;11.966;2023-03-13T13:39:33;3.90;;;2.63;;
17955;SDS011;27666;51.498;11.966;2023-03-13T13:42:37;4.63;;;2.55;;
17955;SDS011;27666;51.498;11.966;2023-03-13T13:45:31;6.47;;;2.38;;
17955;SDS011;27666;51.498;11.966;2023-03-13T13:48:26;4.43;;;2.22;;
17955;SDS011;27666;51.498;11.966;2023-03-13T13:57:37;6.15;;;2.50;;
17955;SDS011;27666;51.498;11.966;2023-03-13T14:00:25;6.25;;;2.47;;
17955;SDS011;27666;51.498;11.966;2023-03-13T14:03:15;3.28;;;2.38;;
17955;SDS011;27666;51.498;11.966;2023-03-13T14:06:11;11.52;;;2.58;;
17955;SDS011;27666;51.498;11.966;2023-03-13T14:09:10;5.00;;;2.67;;
17955;SDS011;27666;51.498;11.966;2023-03-13T14:15:14;4.82;;;2.35;;
17955;SDS011;27666;51.498;11.966;2023-03-13T14:18:08;4.78;;;2.50;;
17955;SDS011;27666;51.498;11.966;2023-03-13T14:20:57;8.60;;;2.50;;
17955;SDS011;27666;51.498;11.966;2023-03-13T14:23:46;3.67;;;2.30;;
17955;SDS011;27666;51.498;11.966;2023-03-13T14:26:33;2.92;;;2.28;;
17955;SDS011;27666;51.498;11.966;2023-03-13T14:29:29;8.65;;;2.25;;
17955;SDS011;27666;51.498;11.966;2023-03-13T14:32:16;2.17;;;2.00;;
17955;SDS011;27666;51.498;11.966;2023-03-13T14:35:03;9.52;;;2.50;;
17955;SDS011;27666;51.498;11.966;2023-03-13T14:37:51;8.57;;;2.90;;
17955;SDS011;27666;51.498;11.966;2023-03-13T14:40:47;4.75;;;2.22;;
17955;SDS011;27666;51.498;11.966;2023-03-13T14:43:36;7.35;;;2.72;;
17955;SDS011;27666;51.498;11.966;2023-03-13T14:46:29;4.65;;;2.60;;
17955;SDS011;27666;51.498;11.966;2023-03-13T14:49:18;2.33;;;2.13;;
17955;SDS011;27666;51.498;11.966;2023-03-13T14:52:13;2.45;;;2.25;;
17955;SDS011;27666;51.498;11.966;2023-03-13T14:55:05;5.05;;;2.42;;
17955;SDS011;27666;51.498;11.966;2023-03-13T14:57:54;2.38;;;2.17;;
17955;SDS011;27666;51.498;11.966;2023-03-13T15:00:42;5.63;;;2.35;;
17955;SDS011;27666;51.498;11.966;2023-03-13T15:03:32;4.32;;;2.63;;
17955;SDS011;27666;51.498;11.966;2023-03-13T15:06:19;3.50;;;2.65;;
17955;SDS011;27666;51.498;11.966;2023-03-13T15:09:13;4.22;;;2.60;;
17955;SDS011;27666;51.498;11.966;2023-03-13T15:12:03;3.85;;;2.60;;
17955;SDS011;27666;51.498;11.966;2023-03-13T15:14:51;5.88;;;2.50;;
17955;SDS011;27666;51.498;11.966;2023-03-13T15:17:40;6.63;;;2.80;;
17955;SDS011;27666;51.498;11.966;2023-03-13T15:20:28;4.60;;;2.72;;
17955;SDS011;27666;51.498;11.966;2023-03-13T15:23:14;6.55;;;3.28;;
17955;SDS011;27666;51.498;11.966;2023-03-13T15:26:01;6.30;;;2.38;;
17955;SDS011;27666;51.498;11.966;2023-03-13T15:28:49;10.40;;;2.53;;
17955;SDS011;27666;51.498;11.966;2023-03-13T15:31:36;2.53;;;2.10;;
17955;SDS011;27666;51.498;11.966;2023-03-13T15:34:29;4.70;;;2.50;;
17955;SDS011;27666;51.498;11.966;2023-03-13T15:37:19;5.38;;;2.78;;
17955;SDS011;27666;51.498;11.966;2023-03-13T15:40:05;5.50;;;3.75;;
17955;SDS011;27666;51.498;11.966;2023-03-13T15:42:58;2.60;;;2.40;;
17955;SDS011;27666;51.498;11.966;2023-03-13T15:45:45;10.88;;;2.40;;
17955;SDS011;27666;51.498;11.966;2023-03-13T15:48:35;2.92;;;2.08;;
17955;SDS011;27666;51.498;11.966;2023-03-13T15:51:21;2.70;;;2.40;;
17955;SDS011;27666;51.498;11.966;2023-03-13T15:54:09;4.53;;;2.33;;
17955;SDS011;27666;51.498;11.966;2023-03-13T15:56:56;5.07;;;2.42;;
17955;SDS011;27666;51.498;11.966;2023-03-13T15:59:42;5.47;;;3.20;;
17955;SDS011;27666;51.498;11.966;2023-03-13T16:02:29;2.95;;;2.63;;
17955;SDS011;27666;51.498;11.966;2023-03-13T16:05:16;4.75;;;2.42;;
17955;SDS011;27666;51.498;11.966;2023-03-13T16:08:02;13.45;;;3.95;;
17955;SDS011;27666;51.498;11.966;2023-03-13T16:10:51;2.20;;;2.00;;
17955;SDS011;27666;51.498;11.966;2023-03-13T16:13:38;5.28;;;2.65;;
17955;SDS011;27666;51.498;11.966;2023-03-13T16:16:25;6.25;;;3.35;;
17955;SDS011;27666;51.498;11.966;2023-03-13T16:19:14;5.25;;;2.42;;
17955;SDS011;27666;51.498;11.966;2023-03-13T16:22:00;7.97;;;2.90;;
17955;SDS011;27666;51.498;11.966;2023-03-13T16:24:47;7.65;;;3.30;;
17955;SDS011;27666;51.498;11.966;2023-03-13T16:27:34;4.78;;;2.88;;
17955;SDS011;27666;51.498;11.966;2023-03-13T16:30:22;4.07;;;2.70;;
17955;SDS011;27666;51.498;11.966;2023-03-13T16:33:10;6.80;;;2.55;;
17955;SDS011;27666;51.498;11.966;2023-03-13T16:35:56;2.53;;;2.25;;
17955;SDS011;27666;51.498;11.966;2023-03-13T16:38:43;4.72;;;2.33;;
17955;SDS011;27666;51.498;11.966;2023-03-13T16:41:30;6.32;;;2.83;;
17955;SDS011;27666;51.498;11.966;2023-03-13T16:44:18;2.92;;;2.55;;
17955;SDS011;27666;51.498;11.966;2023-03-13T16:47:07;6.07;;;3.42;;
17955;SDS011;27666;51.498;11.966;2023-03-13T16:50:01;4.45;;;2.83;;
17955;SDS011;27666;51.498;11.966;2023-03-13T16:52:47;5.10;;;2.72;;
17955;SDS011;27666;51.498;11.966;2023-03-13T16:55:34;3.80;;;2.72;;
17955;SDS011;27666;51.498;11.966;2023-03-13T16:58:23;4.05;;;2.70;;
17955;SDS011;27666;51.498;11.966;2023-03-13T17:01:11;4.88;;;3.20;;